createdAt,value
2022-11-04T00:01:49.777Z,11.97
2022-11-04T00:04:23.787Z,11.97
2022-11-04T00:06:57.372Z,11.95
2022-11-04T00:09:30.973Z,11.94
2022-11-04T00:12:21.047Z,11.90
2022-11-04T00:14:54.316Z,11.91
2022-11-04T00:17:26.776Z,11.88
2022-11-04T00:20:16.738Z,11.87
2022-11-04T00:23:09.047Z,11.81
2022-11-04T00:26:00.564Z,11.85
2022-11-04T00:28:44.524Z,11.83
2022-11-04T00:31:34.627Z,11.82
2022-11-04T00:34:06.887Z,11.79
2022-11-04T00:36:38.864Z,11.79
2022-11-04T00:39:11.034Z,11.76
2022-11-04T00:41:43.097Z,11.81
2022-11-04T00:44:15.280Z,11.69
2022-11-04T00:46:47.638Z,11.80
2022-11-04T00:49:19.733Z,11.82
2022-11-04T00:51:51.900Z,11.81
2022-11-04T00:54:24.232Z,11.78
2022-11-04T00:56:56.491Z,11.75
2022-11-04T00:59:28.692Z,11.77
2022-11-04T01:02:01.107Z,11.75
2022-11-04T01:04:33.829Z,11.73
2022-11-04T01:07:05.952Z,11.77
2022-11-04T01:09:38.145Z,11.80
2022-11-04T01:12:10.444Z,11.79
2022-11-04T01:14:42.628Z,11.76
2022-11-04T01:17:14.736Z,11.75
2022-11-04T01:19:46.885Z,11.77
2022-11-04T01:22:19.037Z,11.75
2022-11-04T01:24:51.489Z,11.73
2022-11-04T01:27:24.054Z,11.76
2022-11-04T01:29:56.111Z,11.74
2022-11-04T01:32:28.566Z,11.76
2022-11-04T01:35:00.628Z,11.76
2022-11-04T01:37:32.856Z,11.79
2022-11-04T01:40:05.338Z,11.76
2022-11-04T01:42:37.505Z,11.71
2022-11-04T01:45:17.259Z,11.73
2022-11-04T01:47:56.662Z,11.72
2022-11-04T01:50:31.190Z,11.73
2022-11-04T01:53:09.020Z,11.73
2022-11-04T01:55:45.937Z,11.75
2022-11-04T01:58:22.013Z,11.74
2022-11-04T02:00:54.454Z,11.71
2022-11-04T02:03:31.997Z,11.65
2022-11-04T02:06:05.788Z,11.68
2022-11-04T02:08:39.351Z,11.68
2022-11-04T02:11:11.743Z,11.68
2022-11-04T02:13:44.444Z,11.69
2022-11-04T02:16:26.026Z,11.67
2022-11-04T02:19:11.868Z,11.63
2022-11-04T02:22:11.455Z,11.61
2022-11-04T02:24:58.942Z,11.56
2022-11-04T02:27:49.281Z,11.54
2022-11-04T02:30:22.968Z,11.54
2022-11-04T02:33:17.275Z,11.55
2022-11-04T02:35:58.644Z,11.51
2022-11-04T02:38:39.854Z,11.47
2022-11-04T02:41:18.450Z,11.51
2022-11-04T02:44:00.548Z,11.53
2022-11-04T02:46:38.882Z,11.43
2022-11-04T02:49:15.824Z,11.45
2022-11-04T02:51:54.024Z,11.37
2022-11-04T02:54:30.176Z,11.39
2022-11-04T02:57:05.504Z,11.40
2022-11-04T02:59:41.218Z,11.41
2022-11-04T03:02:17.490Z,11.42
2022-11-04T03:04:53.175Z,11.38
2022-11-04T03:07:28.913Z,11.34
2022-11-04T03:10:06.563Z,11.28
2022-11-04T03:12:44.437Z,11.25
2022-11-04T03:15:22.107Z,11.32
2022-11-04T03:17:59.504Z,11.25
2022-11-04T03:20:33.574Z,11.18
2022-11-04T03:23:05.799Z,11.26
2022-11-04T03:25:42.515Z,11.24
2022-11-04T03:28:26.160Z,11.25
2022-11-04T03:31:03.434Z,11.24
2022-11-04T03:33:42.757Z,11.27
2022-11-04T03:36:15.096Z,11.20
2022-11-04T03:38:47.729Z,11.24
2022-11-04T03:41:29.752Z,11.24
2022-11-04T03:44:02.349Z,11.24
2022-11-04T03:46:35.110Z,11.26
2022-11-04T03:49:09.168Z,11.28
2022-11-04T03:51:41.642Z,11.27
2022-11-04T03:54:14.714Z,11.26
2022-11-04T03:57:03.522Z,11.22
2022-11-04T03:59:55.786Z,11.20
2022-11-04T04:02:36.959Z,11.18
2022-11-04T04:05:17.822Z,11.18
2022-11-04T04:07:55.154Z,11.18
2022-11-04T04:10:40.741Z,11.18
2022-11-04T04:13:30.085Z,11.17
2022-11-04T04:16:08.374Z,11.17
2022-11-04T04:18:54.032Z,11.14
2022-11-04T04:21:35.621Z,11.11
2022-11-04T04:24:29.126Z,11.08
2022-11-04T04:27:20.407Z,11.08
2022-11-04T04:29:54.500Z,11.05
2022-11-04T04:32:31.249Z,11.01
2022-11-04T04:35:21.708Z,10.99
2022-11-04T04:38:16.884Z,10.99
2022-11-04T04:41:10.525Z,10.98
2022-11-04T04:44:01.992Z,10.95
2022-11-04T04:46:34.787Z,10.92
2022-11-04T04:49:10.775Z,10.91
2022-11-04T04:51:45.802Z,10.91
2022-11-04T04:54:18.161Z,10.89
2022-11-04T04:56:50.191Z,10.86
2022-11-04T04:59:22.192Z,10.85
2022-11-04T05:01:54.539Z,10.82
2022-11-04T05:04:26.887Z,10.72
2022-11-04T05:06:59.148Z,10.75
2022-11-04T05:09:31.600Z,10.75
2022-11-04T05:12:04.116Z,10.74
2022-11-04T05:14:36.156Z,10.74
2022-11-04T05:17:08.273Z,10.72
2022-11-04T05:19:40.671Z,10.73
2022-11-04T05:22:12.937Z,10.74
2022-11-04T05:24:44.849Z,10.79
2022-11-04T05:27:16.957Z,10.68
2022-11-04T05:29:49.054Z,10.70
2022-11-04T05:32:21.087Z,10.71
2022-11-04T05:34:53.200Z,10.74
2022-11-04T05:37:25.722Z,10.68
2022-11-04T05:39:58.271Z,10.74
2022-11-04T05:42:30.708Z,10.76
2022-11-04T05:45:02.765Z,10.74
2022-11-04T05:47:34.934Z,10.74
2022-11-04T05:50:07.927Z,10.76
2022-11-04T05:52:40.053Z,10.75
2022-11-04T05:55:12.712Z,10.76
2022-11-04T05:57:44.861Z,10.77
2022-11-04T06:00:17.852Z,10.74
2022-11-04T06:02:50.172Z,10.72
2022-11-04T06:05:22.367Z,10.69
2022-11-04T06:07:55.346Z,10.67
2022-11-04T06:10:27.899Z,10.67
2022-11-04T06:13:00.256Z,10.70
2022-11-04T06:15:32.408Z,10.71
2022-11-04T06:18:04.873Z,10.73
2022-11-04T06:20:37.097Z,10.71
2022-11-04T06:23:09.220Z,10.72
2022-11-04T06:25:41.286Z,10.72
2022-11-04T06:28:13.724Z,10.77
2022-11-04T06:30:45.809Z,10.77
2022-11-04T06:33:18.368Z,10.77
2022-11-04T06:35:50.697Z,10.82
2022-11-04T06:38:25.561Z,10.76
2022-11-04T06:40:58.628Z,10.83
2022-11-04T06:43:31.361Z,10.86
2022-11-04T06:46:05.002Z,10.93
2022-11-04T06:48:37.317Z,10.95
2022-11-04T06:51:09.658Z,10.98
2022-11-04T06:53:41.989Z,11.01
2022-11-04T06:56:14.129Z,11.03
2022-11-04T06:58:48.929Z,11.03
2022-11-04T07:01:22.037Z,11.06
2022-11-04T07:03:56.011Z,11.08
2022-11-04T07:06:29.209Z,11.07
2022-11-04T07:09:05.364Z,11.07
2022-11-04T07:11:37.789Z,11.09
2022-11-04T07:14:10.381Z,11.13
2022-11-04T07:16:42.960Z,11.15
2022-11-04T07:19:15.274Z,11.17
2022-11-04T07:21:47.851Z,11.19
2022-11-04T07:24:21.396Z,11.22
2022-11-04T07:26:55.330Z,11.25
2022-11-04T07:29:27.463Z,11.28
2022-11-04T07:31:59.469Z,11.28
2022-11-04T07:34:31.536Z,11.30
2022-11-04T07:37:03.684Z,11.31
2022-11-04T07:39:36.047Z,11.27
2022-11-04T07:42:09.659Z,11.36
2022-11-04T07:44:42.027Z,11.43
2022-11-04T07:47:14.480Z,11.48
2022-11-04T07:49:50.788Z,11.53
2022-11-04T07:52:22.945Z,11.61
2022-11-04T07:54:55.940Z,11.64
2022-11-04T07:57:28.094Z,11.64
2022-11-04T08:00:00.259Z,11.81
2022-11-04T08:02:35.181Z,11.93
2022-11-04T08:05:09.461Z,12.04
2022-11-04T08:07:42.143Z,12.13
2022-11-04T08:10:14.764Z,12.18
2022-11-04T08:12:48.325Z,12.14
2022-11-04T08:15:20.846Z,12.33
2022-11-04T08:17:52.973Z,12.40
2022-11-04T08:20:25.907Z,12.45
2022-11-04T08:22:59.844Z,12.51
2022-11-04T08:25:32.182Z,12.61
2022-11-04T08:28:04.626Z,12.65
2022-11-04T08:30:36.890Z,12.73
2022-11-04T08:33:09.183Z,12.58
2022-11-04T08:35:42.956Z,12.64
2022-11-04T08:38:16.900Z,12.61
2022-11-04T08:40:49.230Z,12.64
2022-11-04T08:43:21.863Z,12.81
2022-11-04T08:45:55.069Z,12.78
2022-11-04T08:48:27.516Z,12.83
2022-11-04T08:51:00.722Z,12.94
2022-11-04T08:53:32.821Z,12.96
2022-11-04T08:56:13.050Z,13.00
2022-11-04T08:58:45.797Z,12.99
2022-11-04T09:01:18.303Z,13.15
2022-11-04T09:03:51.369Z,13.25
2022-11-04T09:06:26.950Z,13.29
2022-11-04T09:09:03.880Z,13.33
2022-11-04T09:11:39.802Z,13.38
2022-11-04T09:14:12.648Z,13.38
2022-11-04T09:16:45.548Z,13.42
2022-11-04T09:19:17.633Z,13.45
2022-11-04T09:21:49.776Z,13.49
2022-11-04T09:24:22.290Z,13.55
2022-11-04T09:26:54.359Z,13.61
2022-11-04T09:29:26.716Z,13.63
2022-11-04T09:31:59.359Z,13.69
2022-11-04T09:34:32.425Z,13.69
2022-11-04T09:37:04.883Z,13.74
2022-11-04T09:39:37.166Z,13.78
2022-11-04T09:42:21.819Z,13.81
2022-11-04T09:45:21.266Z,13.83
2022-11-04T09:47:58.169Z,13.85
2022-11-04T09:50:33.068Z,13.88
2022-11-04T09:53:11.112Z,13.86
2022-11-04T09:55:50.373Z,13.91
2022-11-04T09:58:22.937Z,13.91
2022-11-04T10:01:02.747Z,13.95
2022-11-04T10:03:47.315Z,13.95
2022-11-04T10:06:45.773Z,13.97
2022-11-04T10:09:27.137Z,13.97
2022-11-04T10:12:13.773Z,14.01
2022-11-04T10:15:01.219Z,14.06
2022-11-04T10:17:51.717Z,14.11
2022-11-04T10:20:35.141Z,14.21
2022-11-04T10:23:22.038Z,14.26
2022-11-04T10:26:01.004Z,14.33
2022-11-04T10:28:39.822Z,14.31
2022-11-04T10:31:16.614Z,14.47
2022-11-04T10:33:53.551Z,14.54
2022-11-04T10:36:27.324Z,14.52
2022-11-04T10:39:00.214Z,14.42
2022-11-04T10:41:36.871Z,14.37
2022-11-04T10:44:12.473Z,14.48
2022-11-04T10:46:53.456Z,14.48
2022-11-04T10:50:00.107Z,14.46
2022-11-04T10:52:37.988Z,14.46
2022-11-04T10:55:21.772Z,14.50
2022-11-04T10:57:57.429Z,14.50
2022-11-04T11:00:39.119Z,14.50
2022-11-04T11:03:26.581Z,14.51
2022-11-04T11:06:16.941Z,14.49
2022-11-04T11:08:49.969Z,14.43
2022-11-04T11:11:38.592Z,14.47
2022-11-04T11:14:32.447Z,14.34
2022-11-04T11:17:22.724Z,14.44
2022-11-04T11:20:00.424Z,14.44
2022-11-04T11:22:37.735Z,14.47
2022-11-04T11:25:28.580Z,14.50
2022-11-04T11:28:03.168Z,14.52
2022-11-04T11:30:42.147Z,14.55
2022-11-04T11:33:22.227Z,14.57
2022-11-04T11:35:57.805Z,14.61
2022-11-04T11:38:31.567Z,14.65
2022-11-04T11:41:24.441Z,14.62
2022-11-04T11:44:00.285Z,14.62
2022-11-04T11:46:35.074Z,14.66
2022-11-04T11:49:06.607Z,14.68
2022-11-04T11:51:43.694Z,14.64
2022-11-04T11:54:28.789Z,14.64
2022-11-04T11:57:15.234Z,14.68
2022-11-04T12:02:53.343Z,14.69
2022-11-04T12:11:45.809Z,14.76
2022-11-04T12:14:23.951Z,14.77
2022-11-04T12:17:05.857Z,14.81
2022-11-04T12:19:51.373Z,14.82
2022-11-04T12:22:34.503Z,14.85
2022-11-04T12:25:17.119Z,14.84
2022-11-04T12:27:59.222Z,14.78
2022-11-04T12:30:38.496Z,14.82
2022-11-04T12:33:25.604Z,14.80
2022-11-04T12:36:12.905Z,14.72
2022-11-04T12:39:03.646Z,14.69
2022-11-04T12:42:19.134Z,14.68
2022-11-04T12:44:47.654Z,14.63
2022-11-04T12:47:34.370Z,14.60
2022-11-04T12:50:42.791Z,14.60
2022-11-04T12:53:43.089Z,14.56
2022-11-04T12:56:18.854Z,14.54
2022-11-04T12:59:10.942Z,14.54
2022-11-04T13:01:48.133Z,14.51
2022-11-04T13:04:24.633Z,14.52
2022-11-04T13:07:02.064Z,14.52
2022-11-04T13:09:38.980Z,14.55
2022-11-04T13:12:18.549Z,14.48
2022-11-04T13:14:54.501Z,14.54
2022-11-04T13:17:30.819Z,14.47
2022-11-04T13:20:06.570Z,14.55
2022-11-04T13:22:40.481Z,14.57
2022-11-04T13:25:19.068Z,14.58
2022-11-04T13:27:51.650Z,14.58
2022-11-04T13:30:32.404Z,14.54
2022-11-04T13:33:13.167Z,14.55
2022-11-04T13:35:54.057Z,14.55
2022-11-04T13:38:33.801Z,14.56
2022-11-04T13:41:29.797Z,14.57
2022-11-04T13:44:04.926Z,14.52
2022-11-04T13:46:37.386Z,14.55
2022-11-04T13:49:23.683Z,14.55
2022-11-04T13:52:08.499Z,14.56
2022-11-04T13:54:44.377Z,14.53
2022-11-04T13:57:20.164Z,14.52
2022-11-04T14:00:24.344Z,14.51
2022-11-04T14:02:58.861Z,14.51
2022-11-04T14:06:08.584Z,14.48
2022-11-04T14:09:17.954Z,14.46
2022-11-04T14:12:35.663Z,14.41
2022-11-04T14:15:17.028Z,14.37
2022-11-04T14:18:27.440Z,14.35
2022-11-04T14:21:08.195Z,14.35
2022-11-04T14:23:42.184Z,14.32
2022-11-04T14:26:16.636Z,14.31
2022-11-04T14:29:01.348Z,14.28
2022-11-04T14:31:40.278Z,14.26
2022-11-04T14:34:27.918Z,14.28
2022-11-04T14:37:01.903Z,14.24
2022-11-04T14:39:40.081Z,14.22
2022-11-04T14:42:15.748Z,14.20
2022-11-04T14:44:51.007Z,14.20
2022-11-04T14:47:27.694Z,14.18
2022-11-04T14:50:08.718Z,14.17
2022-11-04T14:52:50.419Z,14.16
2022-11-04T14:55:25.404Z,14.13
2022-11-04T14:58:19.572Z,14.14
2022-11-04T15:00:59.653Z,14.12
2022-11-04T15:06:58.352Z,14.11
2022-11-04T15:09:26.579Z,14.10
2022-11-04T15:12:25.588Z,14.09
2022-11-04T15:14:59.556Z,14.07
2022-11-04T15:17:34.187Z,14.04
2022-11-04T15:20:07.922Z,14.03
2022-11-04T15:22:43.618Z,14.02
2022-11-04T15:25:15.657Z,14.01
2022-11-04T15:27:48.416Z,13.82
2022-11-04T15:30:24.833Z,13.97
2022-11-04T15:33:00.043Z,13.97
2022-11-04T15:35:34.383Z,13.93
2022-11-04T15:38:06.605Z,13.94
2022-11-04T15:40:39.829Z,13.91
2022-11-04T15:43:12.591Z,13.92
2022-11-04T15:45:55.795Z,13.88
2022-11-04T15:48:34.037Z,13.87
2022-11-04T15:51:16.002Z,13.85
2022-11-04T15:53:54.835Z,13.84
2022-11-04T15:56:29.700Z,13.83
2022-11-04T15:59:01.529Z,13.70
2022-11-04T16:01:34.213Z,13.69
2022-11-04T16:04:08.813Z,13.83
2022-11-04T16:06:42.746Z,13.81
2022-11-04T16:09:28.915Z,13.78
2022-11-04T16:12:13.746Z,13.79
2022-11-04T16:14:55.763Z,13.75
2022-11-04T16:17:29.460Z,13.77
2022-11-04T16:20:04.384Z,13.78
2022-11-04T16:22:39.693Z,13.76
2022-11-04T16:25:23.582Z,13.75
2022-11-04T16:27:56.458Z,13.70
2022-11-04T16:30:30.235Z,13.78
2022-11-04T16:33:12.749Z,13.76
2022-11-04T16:35:45.629Z,13.76
2022-11-04T16:38:18.081Z,13.76
2022-11-04T16:40:51.625Z,13.74
2022-11-04T16:43:25.445Z,13.70
2022-11-04T16:45:57.720Z,13.76
2022-11-04T16:48:30.297Z,13.74
2022-11-04T16:51:03.097Z,13.73
2022-11-04T16:53:35.560Z,13.74
2022-11-04T16:56:09.684Z,13.73
2022-11-04T16:59:06.317Z,13.72
2022-11-04T17:01:39.999Z,13.72
2022-11-04T17:04:12.323Z,13.71
2022-11-04T17:06:46.947Z,13.72
2022-11-04T17:09:24.362Z,13.72
2022-11-04T17:11:56.496Z,13.72
2022-11-04T17:14:28.697Z,13.72
2022-11-04T17:17:00.964Z,13.69
2022-11-04T17:19:34.924Z,13.69
2022-11-04T17:22:09.953Z,13.68
2022-11-04T17:24:42.398Z,13.69
2022-11-04T17:27:15.495Z,13.66
2022-11-04T17:29:47.831Z,13.63
2022-11-04T17:32:21.259Z,13.64
2022-11-04T17:34:53.984Z,13.65
2022-11-04T17:37:26.232Z,13.63
2022-11-04T17:39:58.336Z,13.62
2022-11-04T17:42:48.280Z,13.61
2022-11-04T17:45:20.717Z,13.56
2022-11-04T17:47:52.895Z,13.58
2022-11-04T17:50:25.378Z,13.58
2022-11-04T17:52:58.392Z,13.57
2022-11-04T17:55:30.970Z,13.57
2022-11-04T17:58:03.557Z,13.57
2022-11-04T18:00:36.611Z,13.56
2022-11-04T18:03:12.493Z,13.56
2022-11-04T18:05:45.582Z,13.54
2022-11-04T18:08:18.102Z,13.54
2022-11-04T18:10:50.517Z,13.52
2022-11-04T18:13:25.324Z,13.51
2022-11-04T18:15:56.209Z,13.50
2022-11-04T18:18:28.758Z,13.49
2022-11-04T18:21:07.336Z,13.46
2022-11-04T18:23:39.812Z,13.47
2022-11-04T18:26:13.177Z,13.44
2022-11-04T18:28:45.545Z,13.44
2022-11-04T18:31:24.591Z,13.42
2022-11-04T18:34:00.184Z,13.35
2022-11-04T18:36:34.744Z,13.42
2022-11-04T18:39:08.693Z,13.40
2022-11-04T18:41:41.090Z,13.41
2022-11-04T18:44:17.688Z,13.39
2022-11-04T18:46:51.074Z,13.37
2022-11-04T18:49:23.560Z,13.35
2022-11-04T18:51:55.852Z,13.28
2022-11-04T18:54:29.135Z,13.35
2022-11-04T18:57:01.736Z,13.33
2022-11-04T18:59:34.607Z,13.33
2022-11-04T19:02:08.415Z,13.32
2022-11-04T19:04:41.648Z,13.30
2022-11-04T19:07:15.002Z,13.31
2022-11-04T19:09:48.797Z,13.29
2022-11-04T19:12:39.438Z,13.28
2022-11-04T19:15:13.380Z,13.24
2022-11-04T19:17:46.009Z,13.25
2022-11-04T19:20:34.868Z,13.26
2022-11-04T19:23:11.078Z,13.26
2022-11-04T19:25:44.411Z,13.27
2022-11-04T19:28:35.071Z,13.23
2022-11-04T19:31:12.908Z,13.26
2022-11-04T19:33:46.082Z,13.26
2022-11-04T19:36:21.814Z,13.25
2022-11-04T19:38:56.672Z,13.25
2022-11-04T19:41:47.071Z,13.24
2022-11-04T19:44:38.585Z,13.22
2022-11-04T19:47:12.114Z,13.17
2022-11-04T19:49:45.605Z,13.19
2022-11-04T19:52:38.614Z,13.20
2022-11-04T19:55:14.119Z,13.20
2022-11-04T19:57:47.301Z,13.19
2022-11-04T20:00:21.297Z,13.17
2022-11-04T20:02:54.891Z,13.17
2022-11-04T20:05:28.925Z,13.15
2022-11-04T20:08:06.236Z,13.15
2022-11-04T20:10:42.101Z,13.14
2022-11-04T20:13:36.998Z,13.10
2022-11-04T20:16:18.402Z,13.08
2022-11-04T20:18:53.016Z,13.07
2022-11-04T20:21:28.565Z,13.09
2022-11-04T20:24:02.871Z,13.08
2022-11-04T20:26:37.625Z,13.05
2022-11-04T20:29:08.912Z,13.06
2022-11-04T20:31:42.591Z,13.06
2022-11-04T20:34:16.332Z,13.08
2022-11-04T20:36:48.962Z,13.09
2022-11-04T20:39:23.437Z,13.07
2022-11-04T20:41:56.531Z,13.05
2022-11-04T20:44:29.231Z,13.04
2022-11-04T20:47:02.655Z,13.02
2022-11-04T20:49:35.431Z,13.05
2022-11-04T20:52:08.170Z,13.06
2022-11-04T20:54:40.705Z,13.06
2022-11-04T20:57:13.035Z,13.06
2022-11-04T20:59:45.390Z,13.05
2022-11-04T21:02:18.434Z,13.08
2022-11-04T21:04:51.282Z,13.10
2022-11-04T21:07:24.227Z,13.08
2022-11-04T21:09:57.409Z,13.09
2022-11-04T21:12:29.759Z,13.07
2022-11-04T21:15:04.387Z,13.08
2022-11-04T21:17:40.082Z,13.09
2022-11-04T21:20:13.771Z,13.09
2022-11-04T21:22:46.361Z,13.08
2022-11-04T21:25:18.954Z,13.10
2022-11-04T21:27:51.219Z,13.10
2022-11-04T21:30:27.718Z,13.07
2022-11-04T21:33:02.913Z,13.06
2022-11-04T21:35:37.203Z,13.10
2022-11-04T21:38:11.763Z,13.08
2022-11-04T21:40:46.483Z,13.09
2022-11-04T21:43:19.611Z,13.05
2022-11-04T21:45:52.198Z,13.06
2022-11-04T21:48:24.622Z,12.98
2022-11-04T21:50:57.182Z,12.99
2022-11-04T21:53:30.868Z,13.05
2022-11-04T21:56:08.466Z,13.04
2022-11-04T21:58:40.877Z,13.05
2022-11-04T22:01:15.335Z,13.01
2022-11-04T22:03:52.029Z,13.00
2022-11-04T22:06:26.692Z,12.97
2022-11-04T22:09:03.623Z,12.96
2022-11-04T22:11:39.252Z,12.93
2022-11-04T22:14:14.085Z,12.95
2022-11-04T22:16:44.603Z,12.94
2022-11-04T22:19:16.654Z,12.93
2022-11-04T22:21:49.484Z,12.94
2022-11-04T22:24:21.648Z,12.99
2022-11-04T22:26:53.987Z,12.97
2022-11-04T22:29:26.947Z,12.96
2022-11-04T22:31:59.120Z,12.92
2022-11-04T22:34:31.477Z,12.90
2022-11-04T22:37:03.611Z,12.91
2022-11-04T22:39:35.932Z,12.72
2022-11-04T22:42:08.882Z,12.73
2022-11-04T22:44:41.052Z,12.70
2022-11-04T22:47:13.465Z,12.63
2022-11-04T22:49:45.635Z,12.63
2022-11-04T22:52:18.038Z,12.58
2022-11-04T22:54:50.301Z,12.59
2022-11-04T22:57:22.573Z,12.61
2022-11-04T22:59:54.664Z,12.61
2022-11-04T23:02:29.985Z,12.61
2022-11-04T23:05:05.022Z,12.64
2022-11-04T23:07:37.101Z,12.63
2022-11-04T23:10:28.207Z,12.66
2022-11-04T23:13:18.377Z,12.65
2022-11-04T23:16:09.492Z,12.67
2022-11-04T23:18:45.148Z,12.64
2022-11-04T23:21:37.563Z,12.63
2022-11-04T23:24:28.465Z,12.67
2022-11-04T23:27:00.838Z,12.71
2022-11-04T23:29:50.542Z,12.70
2022-11-04T23:32:27.167Z,12.71
2022-11-04T23:35:17.525Z,12.72
2022-11-04T23:37:50.486Z,12.61
2022-11-04T23:40:22.668Z,12.70
2022-11-04T23:42:54.836Z,12.74
2022-11-04T23:45:46.037Z,12.75
2022-11-04T23:48:35.710Z,12.72
2022-11-04T23:51:28.630Z,12.70
2022-11-04T23:54:18.374Z,12.67
2022-11-04T23:57:08.396Z,12.62
